Creek Data

    Home     View Charts     View Raw Data     Messages

ID Distance Battery Voltage Battery Current Internal Temp Internal Humidity External Temp Solar Input rssi snr Time Stamp Record
32067 13.9 3.86 0 57 33 52 5.1 -78 8 02/11/2025 11:15 AM 13734
32066 13.8 3.86 0 55 33 51 5.1 -78 7 02/11/2025 11:00 AM 13733
32065 13.8 4.08 0 54 33 51 5.1 -83 8 02/11/2025 10:45 AM 13732
32064 13.9 3.90 0 53 33 49 5.1 -80 8 02/11/2025 10:30 AM 13731
32063 13.8 3.86 0 51 33 49 5.1 -79 8 02/11/2025 10:15 AM 13730
32062 13.8 3.86 0 49 33 48 5.1 -79 9 02/11/2025 10:00 AM 13729
32061 13.8 3.86 0 47 33 48 5.1 -80 8 02/11/2025 09:45 AM 13728
32060 13.9 3.86 0 47 33 48 5.1 -80 7 02/11/2025 09:30 AM 13727
32059 13.9 3.86 0 45 33 50 5.1 -81 7 02/11/2025 09:15 AM 13726
32058 13.8 3.86 0 43 33 48 5.1 -80 7 02/11/2025 09:00 AM 13725
32057 13.7 3.86 0 41 33 49 5.1 -81 8 02/11/2025 08:45 AM 13724
32056 13.7 4.10 0 38 33 44 5.1 -80 7 02/11/2025 08:30 AM 13723
32055 13.6 3.97 0 35 34 46 5.1 -80 7 02/11/2025 08:15 AM 13722
32054 13.6 3.86 0 32 35 39 5 -80 7 02/11/2025 08:00 AM 13721
32053 13.6 4.10 21 32 35 38 4.5 -80 7 02/11/2025 07:45 AM 13720
32052 13.6 3.96 6 31 35 36 4.5 -80 7 02/11/2025 07:30 AM 13719
32051 13.6 3.96 0 31 35 36 4.5 -81 8 02/11/2025 07:15 AM 13718
32050 13.6 3.70 -10 31 35 36 4.5 -81 9 02/11/2025 07:00 AM 13717
32049 13.6 3.83 -5 31 35 36 1.4 -80 8 02/11/2025 06:45 AM 13716
32048 13.6 3.84 -5 31 35 36 0 -80 8 02/11/2025 06:30 AM 13715
32047 13.6 3.84 -5 31 35 35 0 -80 9 02/11/2025 06:15 AM 13714
32046 13.6 3.70 -5 30 36 35 0 -81 9 02/11/2025 06:00 AM 13713
32045 13.6 3.69 -5 30 35 33 0 -82 9 02/11/2025 05:45 AM 13712
32044 13.6 3.78 -5 30 36 33 0 -81 8 02/11/2025 05:30 AM 13711
32043 13.6 3.70 -5 29 36 33 0 -82 8 02/11/2025 05:15 AM 13710